createdAt,value
2023-04-12T00:04:58.032Z,7.33
2023-04-12T00:09:59.997Z,7.38
2023-04-12T00:15:01.960Z,7.50
2023-04-12T00:20:13.619Z,7.46
2023-04-12T00:25:15.571Z,7.41
2023-04-12T00:30:17.722Z,7.45
2023-04-12T00:35:20.481Z,7.50
2023-04-12T00:40:22.552Z,7.45
2023-04-12T00:45:24.516Z,7.45
2023-04-12T00:50:26.467Z,7.43
2023-04-12T00:55:28.556Z,7.39
2023-04-12T01:00:31.007Z,7.38
2023-04-12T01:05:40.780Z,7.38
2023-04-12T01:11:05.922Z,7.39
2023-04-12T01:16:36.631Z,7.29
2023-04-12T01:22:02.650Z,7.19
2023-04-12T01:27:13.629Z,7.08
2023-04-12T01:32:16.466Z,7.02
2023-04-12T01:37:20.003Z,6.78
2023-04-12T01:42:21.819Z,6.62
2023-04-12T01:47:23.740Z,6.48
2023-04-12T01:52:33.667Z,6.29
2023-04-12T01:57:37.411Z,6.19
2023-04-12T02:02:40.201Z,6.14
2023-04-12T02:07:44.754Z,6.09
2023-04-12T02:12:46.580Z,6.02
2023-04-12T02:17:48.456Z,6.08
2023-04-12T02:22:52.100Z,6.16
2023-04-12T02:27:55.466Z,6.24
2023-04-12T02:32:58.714Z,6.30
2023-04-12T02:38:08.769Z,6.40
2023-04-12T02:43:13.680Z,6.38
2023-04-12T02:48:19.707Z,6.36
2023-04-12T02:53:21.967Z,6.35
2023-04-12T02:58:42.037Z,6.35
2023-04-12T03:03:47.987Z,6.23
2023-04-12T03:09:07.034Z,6.07
2023-04-12T03:14:09.000Z,5.94
2023-04-12T03:19:11.125Z,5.88
2023-04-12T03:24:14.653Z,5.75
2023-04-12T03:29:16.624Z,5.72
2023-04-12T03:34:20.260Z,5.71
2023-04-12T03:39:27.028Z,5.71
2023-04-12T03:44:29.130Z,5.75
2023-04-12T03:49:33.970Z,5.75
2023-04-12T03:54:37.466Z,5.65
2023-04-12T03:59:43.556Z,5.62
2023-04-12T04:04:46.185Z,5.66
2023-04-12T04:09:56.181Z,5.66
2023-04-12T04:15:01.288Z,5.68
2023-04-12T04:20:09.751Z,5.67
2023-04-12T04:25:15.686Z,5.59
2023-04-12T04:30:23.293Z,5.55
2023-04-12T04:35:25.632Z,5.56
2023-04-12T04:41:03.259Z,5.60
2023-04-12T04:46:21.332Z,5.69
2023-04-12T04:51:23.433Z,5.70
2023-04-12T04:56:25.716Z,5.92
2023-04-12T05:01:29.468Z,6.04
2023-04-12T05:06:34.308Z,6.18
2023-04-12T05:11:37.607Z,6.29
2023-04-12T05:16:44.672Z,6.43
2023-04-12T05:21:46.662Z,6.54
2023-04-12T05:26:48.560Z,6.65
2023-04-12T05:31:50.572Z,6.78
2023-04-12T05:36:55.489Z,6.96
2023-04-12T05:41:57.490Z,7.17
2023-04-12T05:47:01.344Z,7.41
2023-04-12T05:52:03.858Z,7.67
2023-04-12T05:57:05.866Z,7.97
2023-04-12T06:02:08.904Z,8.25
2023-04-12T06:07:11.222Z,8.55
2023-04-12T06:12:13.109Z,8.85
2023-04-12T06:17:15.219Z,9.14
2023-04-12T06:22:17.352Z,9.39
2023-04-12T06:27:20.783Z,9.66
2023-04-12T06:32:22.971Z,10.01
2023-04-12T06:37:25.695Z,10.33
2023-04-12T06:42:27.760Z,10.74
2023-04-12T06:47:32.087Z,11.08
2023-04-12T06:52:34.104Z,11.41
2023-04-12T06:57:36.112Z,11.68
2023-04-12T07:02:40.072Z,12.01
2023-04-12T07:07:42.350Z,12.24
2023-04-12T07:12:44.406Z,12.58
2023-04-12T07:17:46.726Z,12.90
2023-04-12T07:22:48.679Z,13.22
2023-04-12T07:27:51.806Z,13.51
2023-04-12T07:33:00.223Z,13.83
2023-04-12T07:38:07.263Z,14.22
2023-04-12T07:43:09.136Z,14.38
2023-04-12T07:48:12.077Z,14.61
2023-04-12T07:53:22.869Z,14.80
2023-04-12T07:58:25.013Z,14.96
2023-04-12T08:03:27.447Z,15.09
2023-04-12T08:08:29.397Z,15.19
2023-04-12T08:13:31.242Z,15.23
2023-04-12T08:18:33.055Z,15.31
2023-04-12T08:23:35.047Z,15.48
2023-04-12T08:28:39.022Z,15.46
2023-04-12T08:33:41.503Z,15.60
2023-04-12T08:38:46.013Z,15.70
2023-04-12T08:43:48.928Z,15.73
2023-04-12T08:48:56.294Z,15.88
2023-04-12T08:53:59.551Z,16.06
2023-04-12T08:59:02.640Z,16.19
2023-04-12T09:04:08.102Z,16.38
2023-04-12T09:09:11.488Z,16.45
2023-04-12T09:14:25.338Z,16.59
2023-04-12T09:19:36.639Z,16.80
2023-04-12T09:24:50.682Z,17.00
2023-04-12T09:30:06.835Z,17.08
2023-04-12T09:35:09.074Z,17.04
2023-04-12T09:40:11.503Z,17.09
2023-04-12T09:45:21.914Z,16.96
2023-04-12T09:50:29.574Z,16.76
2023-04-12T09:55:32.604Z,16.64
2023-04-12T10:00:37.029Z,16.44
2023-04-12T10:05:40.673Z,16.42
2023-04-12T10:10:44.991Z,16.49
2023-04-12T10:15:49.603Z,16.55
2023-04-12T10:20:51.706Z,16.73
2023-04-12T10:25:57.186Z,16.98
2023-04-12T10:31:20.661Z,16.99
2023-04-12T10:36:52.216Z,16.88
2023-04-12T10:42:29.335Z,16.93
2023-04-12T10:47:49.479Z,17.04
2023-04-12T10:53:21.786Z,17.06
2023-04-12T10:59:31.314Z,17.20
2023-04-12T11:04:59.364Z,17.38
2023-04-12T11:10:21.874Z,17.52
2023-04-12T11:15:27.283Z,17.29
2023-04-12T11:20:33.633Z,17.15
2023-04-12T11:25:37.393Z,17.07
2023-04-12T11:30:55.629Z,16.89
2023-04-12T11:35:57.485Z,17.18
2023-04-12T11:40:59.999Z,17.54
2023-04-12T11:46:02.244Z,17.83
2023-04-12T11:51:21.104Z,18.04
2023-04-12T11:56:23.003Z,18.24
2023-04-12T12:01:25.058Z,18.42
2023-04-12T12:06:28.162Z,18.31
2023-04-12T12:11:30.807Z,18.35
2023-04-12T12:16:33.531Z,18.36
2023-04-12T12:21:35.632Z,18.40
2023-04-12T12:26:37.500Z,18.39
2023-04-12T12:31:47.736Z,18.38
2023-04-12T12:36:56.730Z,18.41
2023-04-12T12:41:58.663Z,18.45
2023-04-12T12:47:10.245Z,18.35
2023-04-12T12:52:17.809Z,18.39
2023-04-12T12:57:20.033Z,18.31
2023-04-12T13:02:21.997Z,18.06
2023-04-12T13:07:24.494Z,17.91
2023-04-12T13:12:26.472Z,17.73
2023-04-12T13:17:29.335Z,17.68
2023-04-12T13:22:31.282Z,17.66
2023-04-12T13:27:33.195Z,17.68
2023-04-12T13:32:36.040Z,17.57
2023-04-12T13:37:38.095Z,17.44
2023-04-12T13:42:40.066Z,17.39
2023-04-12T13:47:42.205Z,17.30
2023-04-12T13:52:44.109Z,17.25
2023-04-12T13:57:45.978Z,17.33
2023-04-12T14:02:47.933Z,17.26
2023-04-12T14:07:50.983Z,17.21
2023-04-12T14:12:52.818Z,16.68
2023-04-12T14:17:54.816Z,16.63
2023-04-12T14:22:57.085Z,16.47
2023-04-12T14:27:58.947Z,16.54
2023-04-12T14:33:00.977Z,16.30
2023-04-12T14:38:04.676Z,15.93
2023-04-12T14:43:06.575Z,15.76
2023-04-12T14:48:08.690Z,15.53
2023-04-12T14:53:11.208Z,15.39
2023-04-12T14:58:13.414Z,15.27
2023-04-12T15:03:15.617Z,14.96
2023-04-12T15:08:18.089Z,14.93
2023-04-12T15:13:21.931Z,14.96
2023-04-12T15:18:24.978Z,14.88
2023-04-12T15:23:26.880Z,14.76
2023-04-12T15:28:29.235Z,14.72
2023-04-12T15:33:34.493Z,14.70
2023-04-12T15:38:43.367Z,14.67
2023-04-12T15:43:49.386Z,14.66
2023-04-12T15:48:51.345Z,14.66
2023-04-12T15:53:53.935Z,14.66
2023-04-12T15:59:01.220Z,14.53
2023-04-12T16:04:03.727Z,14.49
2023-04-12T16:09:05.727Z,14.49
2023-04-12T16:14:08.501Z,14.35
2023-04-12T16:19:11.160Z,14.31
2023-04-12T16:24:13.445Z,14.28
2023-04-12T16:29:15.637Z,14.18
2023-04-12T16:34:21.886Z,14.25
2023-04-12T16:39:23.705Z,14.34
2023-04-12T16:44:25.527Z,14.39
2023-04-12T16:49:27.904Z,14.31
2023-04-12T16:54:30.568Z,14.18
2023-04-12T16:59:33.654Z,14.15
2023-04-12T17:04:35.872Z,14.09
2023-04-12T17:09:37.750Z,14.08
2023-04-12T17:14:39.615Z,14.10
2023-04-12T17:19:44.203Z,14.13
2023-04-12T17:24:46.404Z,14.13
2023-04-12T17:29:50.353Z,14.18
2023-04-12T17:34:54.885Z,14.18
2023-04-12T17:39:59.756Z,14.10
2023-04-12T17:45:01.744Z,14.13
2023-04-12T17:50:04.321Z,14.14
2023-04-12T17:55:09.526Z,14.08
2023-04-12T18:00:12.209Z,14.11
2023-04-12T18:05:17.560Z,14.08
2023-04-12T18:10:21.635Z,14.02
2023-04-12T18:15:23.612Z,14.04
2023-04-12T18:20:25.471Z,14.07
2023-04-12T18:25:27.732Z,14.06
2023-04-12T18:30:30.497Z,14.07
2023-04-12T18:35:32.354Z,14.01
2023-04-12T18:40:38.380Z,13.96
2023-04-12T18:45:44.151Z,13.94
2023-04-12T18:50:52.040Z,13.94
2023-04-12T18:55:54.124Z,13.94
2023-04-12T19:00:56.585Z,13.94
2023-04-12T19:05:59.117Z,13.91
2023-04-12T19:11:01.338Z,13.86
2023-04-12T19:16:03.899Z,13.81
2023-04-12T19:21:06.661Z,13.82
2023-04-12T19:26:08.540Z,13.89
2023-04-12T19:31:12.208Z,13.88
2023-04-12T19:36:14.255Z,13.92
2023-04-12T19:41:17.650Z,13.86
2023-04-12T19:46:19.719Z,13.91
2023-04-12T19:51:21.579Z,13.97
2023-04-12T19:56:24.582Z,14.03
2023-04-12T20:01:26.930Z,14.04
2023-04-12T20:06:28.916Z,14.03
2023-04-12T20:11:30.766Z,14.01
2023-04-12T20:16:33.124Z,13.94
2023-04-12T20:21:35.634Z,13.78
2023-04-12T20:26:37.503Z,13.72
2023-04-12T20:31:39.636Z,13.73
2023-04-12T20:36:41.569Z,13.70
2023-04-12T20:41:50.018Z,13.70
2023-04-12T20:46:52.938Z,13.78
2023-04-12T20:51:58.907Z,13.75
2023-04-12T20:57:00.969Z,13.70
2023-04-12T21:02:02.972Z,13.73
2023-04-12T21:07:05.212Z,13.79
2023-04-12T21:12:08.760Z,13.90
2023-04-12T21:17:10.817Z,13.91
2023-04-12T21:22:12.615Z,14.01
2023-04-12T21:27:14.700Z,14.05
2023-04-12T21:32:17.127Z,13.98
2023-04-12T21:37:22.156Z,13.88
2023-04-12T21:42:24.442Z,13.88
2023-04-12T21:47:26.303Z,13.88
2023-04-12T21:52:28.176Z,13.86
2023-04-12T21:57:31.510Z,13.82
2023-04-12T22:02:33.463Z,13.73
2023-04-12T22:07:35.539Z,13.65
2023-04-12T22:12:40.303Z,13.64
2023-04-12T22:17:42.877Z,13.59
2023-04-12T22:22:44.736Z,13.57
2023-04-12T22:27:46.713Z,13.59
2023-04-12T22:32:48.654Z,13.60
2023-04-12T22:37:50.895Z,13.56
2023-04-12T22:42:53.912Z,13.57
2023-04-12T22:47:55.798Z,13.58
2023-04-12T22:52:58.063Z,13.57
2023-04-12T22:58:00.400Z,13.57
2023-04-12T23:03:04.150Z,13.59
2023-04-12T23:08:06.173Z,13.64
2023-04-12T23:13:08.792Z,13.64
2023-04-12T23:18:10.915Z,13.67
2023-04-12T23:23:13.595Z,13.68
2023-04-12T23:28:19.459Z,13.70
2023-04-12T23:33:22.046Z,13.76
2023-04-12T23:38:27.176Z,13.79
2023-04-12T23:43:29.656Z,13.71
2023-04-12T23:48:32.850Z,13.68
2023-04-12T23:53:34.718Z,13.70
2023-04-12T23:58:36.760Z,13.67
